createdAt,value
2022-11-28T00:01:32.405Z,100.00
2022-11-28T00:04:01.715Z,100.00
2022-11-28T00:06:30.274Z,100.00
2022-11-28T00:08:59.829Z,100.00
2022-11-28T00:11:27.864Z,100.00
2022-11-28T00:13:56.347Z,100.00
2022-11-28T00:16:24.990Z,100.00
2022-11-28T00:18:54.691Z,100.00
2022-11-28T00:21:24.466Z,100.00
2022-11-28T00:23:52.843Z,100.00
2022-11-28T00:26:25.389Z,100.00
2022-11-28T00:28:53.472Z,100.00
2022-11-28T00:31:23.707Z,100.00
2022-11-28T00:33:51.859Z,100.00
2022-11-28T00:36:20.727Z,100.00
2022-11-28T00:38:50.728Z,100.00
2022-11-28T00:41:20.991Z,100.00
2022-11-28T00:43:50.349Z,100.00
2022-11-28T00:46:19.949Z,100.00
2022-11-28T00:48:48.648Z,100.00
2022-11-28T00:51:18.865Z,100.00
2022-11-28T00:53:50.089Z,100.00
2022-11-28T00:56:19.482Z,100.00
2022-11-28T00:58:49.344Z,100.00
2022-11-28T01:01:20.224Z,100.00
2022-11-28T01:03:49.054Z,100.00
2022-11-28T01:06:23.062Z,100.00
2022-11-28T01:08:53.055Z,100.00
2022-11-28T01:11:21.921Z,100.00
2022-11-28T01:13:50.388Z,100.00
2022-11-28T01:16:18.566Z,100.00
2022-11-28T01:18:46.566Z,100.00
2022-11-28T01:21:15.099Z,100.00
2022-11-28T01:23:43.117Z,100.00
2022-11-28T01:26:16.398Z,100.00
2022-11-28T01:28:44.515Z,100.00
2022-11-28T01:31:15.760Z,100.00
2022-11-28T01:33:44.471Z,100.00
2022-11-28T01:36:13.612Z,100.00
2022-11-28T01:38:41.780Z,100.00
2022-11-28T01:41:09.867Z,100.00
2022-11-28T01:43:58.041Z,100.00
2022-11-28T01:46:26.203Z,100.00
2022-11-28T01:48:57.118Z,100.00
2022-11-28T01:51:25.777Z,100.00
2022-11-28T01:53:54.333Z,100.00
2022-11-28T01:56:26.215Z,100.00
2022-11-28T01:58:59.052Z,100.00
2022-11-28T02:01:27.393Z,100.00
2022-11-28T02:03:56.914Z,100.00
2022-11-28T02:06:26.473Z,100.00
2022-11-28T02:08:55.607Z,100.00
2022-11-28T02:11:49.079Z,100.00
2022-11-28T02:14:39.573Z,100.00
2022-11-28T02:17:18.291Z,100.00
2022-11-28T02:20:37.641Z,100.00
2022-11-28T02:23:13.693Z,100.00
2022-11-28T02:26:04.715Z,100.00
2022-11-28T02:29:14.261Z,100.00
2022-11-28T02:32:11.900Z,100.00
2022-11-28T02:34:52.117Z,100.00
2022-11-28T02:37:27.650Z,100.00
2022-11-28T02:40:08.409Z,100.00
2022-11-28T02:42:44.777Z,100.00
2022-11-28T02:45:20.486Z,100.00
2022-11-28T02:47:55.920Z,100.00
2022-11-28T02:50:30.079Z,99.87
2022-11-28T02:53:06.576Z,99.25
2022-11-28T02:55:37.981Z,99.82
2022-11-28T02:58:05.988Z,99.65
2022-11-28T03:00:36.066Z,100.00
2022-11-28T03:03:21.447Z,100.00
2022-11-28T03:05:59.118Z,100.00
2022-11-28T03:08:43.549Z,100.00
2022-11-28T03:11:20.049Z,100.00
2022-11-28T03:13:57.829Z,100.00
2022-11-28T03:16:30.236Z,100.00
2022-11-28T03:19:07.378Z,100.00
2022-11-28T03:21:42.053Z,100.00
2022-11-28T03:24:16.216Z,100.00
2022-11-28T03:26:53.978Z,100.00
2022-11-28T03:29:27.365Z,100.00
2022-11-28T03:32:00.199Z,100.00
2022-11-28T03:34:34.669Z,100.00
2022-11-28T03:37:07.305Z,100.00
2022-11-28T03:39:40.569Z,100.00
2022-11-28T03:42:12.289Z,100.00
2022-11-28T03:44:45.698Z,100.00
2022-11-28T03:47:14.352Z,100.00
2022-11-28T03:49:49.046Z,100.00
2022-11-28T03:52:25.071Z,100.00
2022-11-28T03:54:56.738Z,100.00
2022-11-28T03:57:34.303Z,100.00
2022-11-28T04:00:05.937Z,100.00
2022-11-28T04:02:38.652Z,100.00
2022-11-28T04:05:16.872Z,100.00
2022-11-28T04:07:48.407Z,100.00
2022-11-28T04:10:21.797Z,100.00
2022-11-28T04:12:56.140Z,99.98
2022-11-28T04:15:31.888Z,100.00
2022-11-28T04:18:05.255Z,100.00
2022-11-28T04:20:40.165Z,100.00
2022-11-28T04:23:12.637Z,99.91
2022-11-28T04:25:46.002Z,99.29
2022-11-28T04:28:19.690Z,100.00
2022-11-28T04:30:50.817Z,99.96
2022-11-28T04:33:21.752Z,99.76
2022-11-28T04:35:54.161Z,99.41
2022-11-28T04:38:25.485Z,98.98
2022-11-28T04:40:58.163Z,98.88
2022-11-28T04:43:31.117Z,99.53
2022-11-28T04:46:05.503Z,99.08
2022-11-28T04:48:34.662Z,98.76
2022-11-28T04:51:15.588Z,97.09
2022-11-28T04:53:49.659Z,97.16
2022-11-28T04:56:22.687Z,96.55
2022-11-28T04:58:52.225Z,96.37
2022-11-28T05:01:25.799Z,97.18
2022-11-28T05:03:55.235Z,96.35
2022-11-28T05:06:29.580Z,96.17
2022-11-28T05:08:57.597Z,96.41
2022-11-28T05:11:26.225Z,95.85
2022-11-28T05:13:54.508Z,95.68
2022-11-28T05:16:23.245Z,96.81
2022-11-28T05:18:51.655Z,96.02
2022-11-28T05:21:19.727Z,96.40
2022-11-28T05:23:49.803Z,96.12
2022-11-28T05:26:20.510Z,96.43
2022-11-28T05:28:51.201Z,97.03
2022-11-28T05:31:21.348Z,97.39
2022-11-28T05:33:49.622Z,98.62
2022-11-28T05:36:18.518Z,98.49
2022-11-28T05:38:46.584Z,98.71
2022-11-28T05:41:23.736Z,98.43
2022-11-28T05:43:51.983Z,98.36
2022-11-28T05:46:20.396Z,98.57
2022-11-28T05:48:48.597Z,98.44
2022-11-28T05:51:16.730Z,98.02
2022-11-28T05:53:44.907Z,97.85
2022-11-28T05:56:14.404Z,97.67
2022-11-28T05:58:44.715Z,97.71
2022-11-28T06:01:14.494Z,98.09
2022-11-28T06:03:43.469Z,98.02
2022-11-28T06:06:14.049Z,97.63
2022-11-28T06:08:42.692Z,98.13
2022-11-28T06:11:11.313Z,98.24
2022-11-28T06:13:39.718Z,97.75
2022-11-28T06:16:13.268Z,98.07
2022-11-28T06:18:42.012Z,96.97
2022-11-28T06:21:12.200Z,97.11
2022-11-28T06:23:40.838Z,97.15
2022-11-28T06:26:11.470Z,96.94
2022-11-28T06:28:39.893Z,96.67
2022-11-28T06:31:13.726Z,97.06
2022-11-28T06:33:42.359Z,97.10
2022-11-28T06:36:11.844Z,97.59
2022-11-28T06:38:39.922Z,96.92
2022-11-28T06:41:09.778Z,97.71
2022-11-28T06:43:37.944Z,98.06
2022-11-28T06:46:06.418Z,98.76
2022-11-28T06:48:36.049Z,98.13
2022-11-28T06:51:05.121Z,98.56
2022-11-28T06:53:33.430Z,99.43
2022-11-28T06:56:05.917Z,99.03
2022-11-28T06:58:34.532Z,99.26
2022-11-28T07:01:08.245Z,99.68
2022-11-28T07:03:37.980Z,100.00
2022-11-28T07:06:07.031Z,100.00
2022-11-28T07:08:35.885Z,100.00
2022-11-28T07:11:12.416Z,100.00
2022-11-28T07:13:41.548Z,100.00
2022-11-28T07:16:14.406Z,100.00
2022-11-28T07:18:44.099Z,100.00
2022-11-28T07:21:14.359Z,100.00
2022-11-28T07:23:42.924Z,100.00
2022-11-28T07:26:12.862Z,100.00
2022-11-28T07:28:41.299Z,100.00
2022-11-28T07:31:11.990Z,100.00
2022-11-28T07:33:40.895Z,100.00
2022-11-28T07:36:14.328Z,100.00
2022-11-28T07:38:42.292Z,100.00
2022-11-28T07:41:12.275Z,100.00
2022-11-28T07:43:41.016Z,100.00
2022-11-28T07:46:11.660Z,100.00
2022-11-28T07:48:40.220Z,100.00
2022-11-28T07:51:11.349Z,100.00
2022-11-28T07:53:39.549Z,100.00
2022-11-28T07:56:10.174Z,100.00
2022-11-28T07:58:39.083Z,100.00
2022-11-28T08:01:10.681Z,100.00
2022-11-28T08:03:38.869Z,100.00
2022-11-28T08:06:08.020Z,100.00
2022-11-28T08:08:37.631Z,100.00
2022-11-28T08:11:07.621Z,100.00
2022-11-28T08:13:36.334Z,100.00
2022-11-28T08:16:06.677Z,100.00
2022-11-28T08:18:35.123Z,100.00
2022-11-28T08:21:07.463Z,100.00
2022-11-28T08:23:37.621Z,100.00
2022-11-28T08:26:06.997Z,100.00
2022-11-28T08:28:35.144Z,100.00
2022-11-28T08:31:10.740Z,100.00
2022-11-28T08:33:38.962Z,100.00
2022-11-28T08:36:07.549Z,100.00
2022-11-28T08:38:35.477Z,100.00
2022-11-28T08:41:06.428Z,100.00
2022-11-28T08:43:36.860Z,100.00
2022-11-28T08:46:05.116Z,100.00
2022-11-28T08:48:33.157Z,100.00
2022-11-28T08:51:01.066Z,100.00
2022-11-28T08:53:29.232Z,100.00
2022-11-28T08:55:58.190Z,100.00
2022-11-28T08:58:27.600Z,100.00
2022-11-28T09:00:55.586Z,100.00
2022-11-28T09:03:23.645Z,100.00
2022-11-28T09:05:51.775Z,100.00
2022-11-28T09:08:21.736Z,100.00
2022-11-28T09:10:49.687Z,100.00
2022-11-28T09:13:17.624Z,100.00
2022-11-28T09:15:51.212Z,100.00
2022-11-28T09:18:20.580Z,100.00
2022-11-28T09:20:48.565Z,100.00
2022-11-28T09:23:16.492Z,100.00
2022-11-28T09:25:44.393Z,100.00
2022-11-28T09:28:12.324Z,100.00
2022-11-28T09:30:40.283Z,100.00
2022-11-28T09:33:09.741Z,100.00
2022-11-28T09:35:39.446Z,100.00
2022-11-28T09:38:07.569Z,100.00
2022-11-28T09:40:39.119Z,100.00
2022-11-28T09:43:16.445Z,100.00
2022-11-28T09:45:45.986Z,98.77
2022-11-28T09:48:26.762Z,96.31
2022-11-28T09:50:59.829Z,98.21
2022-11-28T09:53:35.773Z,100.00
2022-11-28T09:56:12.346Z,100.00
2022-11-28T09:58:45.393Z,100.00
2022-11-28T10:01:22.429Z,99.96
2022-11-28T10:03:59.288Z,100.00
2022-11-28T10:06:35.208Z,98.79
2022-11-28T10:09:31.946Z,94.90
2022-11-28T10:12:15.271Z,97.86
2022-11-28T10:15:04.077Z,95.83
2022-11-28T10:17:44.483Z,97.76
2022-11-28T10:20:19.863Z,98.53
2022-11-28T10:22:51.387Z,97.34
2022-11-28T10:25:23.581Z,98.47
2022-11-28T10:27:52.335Z,97.57
2022-11-28T10:30:24.023Z,94.93
2022-11-28T10:32:59.137Z,93.59
2022-11-28T10:35:35.344Z,95.33
2022-11-28T10:38:03.844Z,94.85
2022-11-28T10:40:43.106Z,91.77
2022-11-28T10:43:21.162Z,89.88
2022-11-28T10:46:00.265Z,91.24
2022-11-28T10:48:40.433Z,91.13
2022-11-28T10:51:23.269Z,89.03
2022-11-28T10:54:02.790Z,90.10
2022-11-28T10:56:39.969Z,89.76
2022-11-28T10:59:22.021Z,90.98
2022-11-28T11:01:52.370Z,92.87
2022-11-28T11:04:23.764Z,91.81
2022-11-28T11:07:10.607Z,90.02
2022-11-28T11:09:41.238Z,90.57
2022-11-28T11:12:18.966Z,89.50
2022-11-28T11:14:47.741Z,88.00
2022-11-28T11:17:36.130Z,87.20
2022-11-28T11:20:27.008Z,89.22
2022-11-28T11:22:58.004Z,91.25
2022-11-28T11:25:27.260Z,88.93
2022-11-28T11:27:58.038Z,86.77
2022-11-28T11:30:29.078Z,88.17
2022-11-28T11:32:58.634Z,87.67
2022-11-28T11:35:28.820Z,87.94
2022-11-28T11:38:17.709Z,88.81
2022-11-28T11:40:46.017Z,89.48
2022-11-28T11:43:29.777Z,89.98
2022-11-28T11:46:08.857Z,89.95
2022-11-28T11:48:38.740Z,91.33
2022-11-28T11:51:08.165Z,92.50
2022-11-28T11:53:37.485Z,92.43
2022-11-28T11:56:05.712Z,91.84
2022-11-28T11:58:42.212Z,92.40
2022-11-28T12:01:13.239Z,90.96
2022-11-28T12:03:43.792Z,90.26
2022-11-28T12:06:16.957Z,88.80
2022-11-28T12:08:51.817Z,86.72
2022-11-28T12:11:25.197Z,85.71
2022-11-28T12:13:53.989Z,86.79
2022-11-28T12:16:42.603Z,88.31
2022-11-28T12:19:24.515Z,88.78
2022-11-28T12:22:05.629Z,89.48
2022-11-28T12:24:47.472Z,90.02
2022-11-28T12:27:26.950Z,90.47
2022-11-28T12:30:07.516Z,90.54
2022-11-28T12:32:48.178Z,92.25
2022-11-28T12:35:28.868Z,92.90
2022-11-28T12:38:11.661Z,94.13
2022-11-28T12:40:53.453Z,94.24
2022-11-28T12:43:35.617Z,94.23
2022-11-28T12:46:11.083Z,93.04
2022-11-28T12:48:55.064Z,91.80
2022-11-28T12:51:30.696Z,92.23
2022-11-28T12:54:14.702Z,92.08
2022-11-28T12:56:50.293Z,92.56
2022-11-28T12:59:25.916Z,92.02
2022-11-28T13:02:05.232Z,92.54
2022-11-28T13:04:53.888Z,93.48
2022-11-28T13:07:33.847Z,93.49
2022-11-28T13:10:15.029Z,92.77
2022-11-28T13:12:51.797Z,91.77
2022-11-28T13:15:29.525Z,91.81
2022-11-28T13:18:01.881Z,93.15
2022-11-28T13:20:34.375Z,92.40
2022-11-28T13:23:12.735Z,91.73
2022-11-28T13:25:48.964Z,92.12
2022-11-28T13:28:23.485Z,91.50
2022-11-28T13:30:54.341Z,92.23
2022-11-28T13:33:36.583Z,91.63
2022-11-28T13:36:09.218Z,90.48
2022-11-28T13:39:11.296Z,89.86
2022-11-28T13:42:21.251Z,90.96
2022-11-28T13:44:43.139Z,90.04
2022-11-28T13:47:16.109Z,91.24
2022-11-28T13:49:44.049Z,92.36
2022-11-28T13:52:43.228Z,91.63
2022-11-28T13:55:38.574Z,90.81
2022-11-28T13:58:17.359Z,91.25
2022-11-28T14:01:10.464Z,92.69
2022-11-28T14:03:47.889Z,92.29
2022-11-28T14:06:19.525Z,91.96
2022-11-28T14:08:50.111Z,92.34
2022-11-28T14:11:47.566Z,93.74
2022-11-28T14:14:34.583Z,93.49
2022-11-28T14:17:16.627Z,93.25
2022-11-28T14:20:00.705Z,94.08
2022-11-28T14:22:52.823Z,93.86
2022-11-28T14:25:25.065Z,93.21
2022-11-28T14:27:55.472Z,92.69
2022-11-28T14:30:30.314Z,92.11
2022-11-28T14:33:02.495Z,91.96
2022-11-28T14:36:07.614Z,92.37
2022-11-28T14:38:46.308Z,92.85
2022-11-28T14:41:15.371Z,93.55
2022-11-28T14:43:46.327Z,93.77
2022-11-28T14:46:31.892Z,92.69
2022-11-28T14:49:25.132Z,92.95
2022-11-28T14:52:41.579Z,93.43
2022-11-28T14:55:20.650Z,93.06
2022-11-28T14:57:59.171Z,95.23
2022-11-28T15:00:29.698Z,95.06
2022-11-28T15:03:11.380Z,95.41
2022-11-28T15:05:46.341Z,95.55
2022-11-28T15:08:28.640Z,95.32
2022-11-28T15:11:09.883Z,95.78
2022-11-28T15:13:50.679Z,96.16
2022-11-28T15:16:21.476Z,95.66
2022-11-28T15:18:52.181Z,95.80
2022-11-28T15:21:22.315Z,95.96
2022-11-28T15:23:52.697Z,95.92
2022-11-28T15:26:23.144Z,96.65
2022-11-28T15:29:10.367Z,96.12
2022-11-28T15:31:38.994Z,96.59
2022-11-28T15:34:10.082Z,97.02
2022-11-28T15:36:40.444Z,96.83
2022-11-28T15:39:25.943Z,97.95
2022-11-28T15:41:54.141Z,97.42
2022-11-28T15:44:22.149Z,97.50
2022-11-28T15:46:50.423Z,97.98
2022-11-28T15:49:26.369Z,97.52
2022-11-28T15:51:59.803Z,98.50
2022-11-28T15:54:41.023Z,99.21
2022-11-28T15:57:19.485Z,100.00
2022-11-28T15:59:47.524Z,100.00
2022-11-28T16:02:22.725Z,100.00
2022-11-28T16:04:54.643Z,99.44
2022-11-28T16:07:24.082Z,100.00
2022-11-28T16:09:59.609Z,100.00
2022-11-28T16:12:28.708Z,99.36
2022-11-28T16:15:01.870Z,99.02
2022-11-28T16:17:34.243Z,100.00
2022-11-28T16:20:03.714Z,100.00
2022-11-28T16:22:37.102Z,100.00
2022-11-28T16:25:15.645Z,100.00
2022-11-28T16:27:48.721Z,100.00
2022-11-28T16:30:44.772Z,100.00
2022-11-28T16:33:38.657Z,100.00
2022-11-28T16:36:11.908Z,100.00
2022-11-28T16:38:41.299Z,100.00
2022-11-28T16:41:16.632Z,100.00
2022-11-28T16:43:48.727Z,100.00
2022-11-28T16:46:21.282Z,100.00
2022-11-28T16:48:51.537Z,100.00
2022-11-28T16:51:31.141Z,100.00
2022-11-28T16:54:01.371Z,100.00
2022-11-28T16:56:44.917Z,100.00
2022-11-28T16:59:14.515Z,100.00
2022-11-28T17:01:43.933Z,100.00
2022-11-28T17:04:21.988Z,100.00
2022-11-28T17:06:50.579Z,100.00
2022-11-28T17:09:20.469Z,100.00
2022-11-28T17:11:55.576Z,100.00
2022-11-28T17:14:23.818Z,100.00
2022-11-28T17:16:51.955Z,100.00
2022-11-28T17:19:19.891Z,100.00
2022-11-28T17:21:50.813Z,100.00
2022-11-28T17:24:21.821Z,100.00
2022-11-28T17:26:50.613Z,100.00
2022-11-28T17:29:18.589Z,100.00
2022-11-28T17:31:48.090Z,100.00
2022-11-28T17:34:17.955Z,100.00
2022-11-28T17:36:46.263Z,100.00
2022-11-28T17:39:14.576Z,100.00
2022-11-28T17:41:44.545Z,100.00
2022-11-28T17:44:17.498Z,100.00
2022-11-28T17:46:45.466Z,100.00
2022-11-28T17:49:13.666Z,100.00
2022-11-28T17:51:41.615Z,100.00
2022-11-28T17:54:12.233Z,100.00
2022-11-28T17:56:40.141Z,100.00
2022-11-28T17:59:10.176Z,100.00
2022-11-28T18:01:38.182Z,100.00
2022-11-28T18:04:06.564Z,100.00
2022-11-28T18:06:34.666Z,100.00
2022-11-28T18:09:10.124Z,100.00
2022-11-28T18:11:39.798Z,100.00
2022-11-28T18:14:09.227Z,100.00
2022-11-28T18:16:37.240Z,100.00
2022-11-28T18:19:05.604Z,100.00
2022-11-28T18:21:33.552Z,100.00
2022-11-28T18:24:01.770Z,100.00
2022-11-28T18:26:29.728Z,100.00
2022-11-28T18:28:57.690Z,100.00
2022-11-28T18:31:28.917Z,100.00
2022-11-28T18:34:01.578Z,100.00
2022-11-28T18:36:31.894Z,100.00
2022-11-28T18:39:01.387Z,100.00
2022-11-28T18:41:30.407Z,100.00
2022-11-28T18:43:59.838Z,100.00
2022-11-28T18:46:30.034Z,100.00
2022-11-28T18:48:58.368Z,100.00
2022-11-28T18:51:28.362Z,100.00
2022-11-28T18:53:57.422Z,100.00
2022-11-28T18:56:26.377Z,100.00
2022-11-28T18:58:55.536Z,100.00
2022-11-28T19:01:28.482Z,100.00
2022-11-28T19:03:59.629Z,100.00
2022-11-28T19:06:27.946Z,100.00
2022-11-28T19:08:57.860Z,100.00
2022-11-28T19:11:27.311Z,100.00
2022-11-28T19:13:56.082Z,100.00
2022-11-28T19:16:26.060Z,100.00
2022-11-28T19:18:54.240Z,100.00
2022-11-28T19:21:26.079Z,100.00
2022-11-28T19:23:56.376Z,100.00
2022-11-28T19:26:25.823Z,100.00
2022-11-28T19:28:54.435Z,100.00
2022-11-28T19:31:24.019Z,100.00
2022-11-28T19:34:00.537Z,100.00
2022-11-28T19:36:31.844Z,100.00
2022-11-28T19:39:00.266Z,100.00
2022-11-28T19:41:29.338Z,100.00
2022-11-28T19:43:57.437Z,100.00
2022-11-28T19:46:29.180Z,100.00
2022-11-28T19:49:00.052Z,100.00
2022-11-28T19:51:28.337Z,100.00
2022-11-28T19:54:02.888Z,100.00
2022-11-28T19:56:32.530Z,100.00
2022-11-28T19:59:01.008Z,100.00
2022-11-28T20:01:29.273Z,100.00
2022-11-28T20:03:58.857Z,100.00
2022-11-28T20:06:28.972Z,100.00
2022-11-28T20:09:00.452Z,100.00
2022-11-28T20:11:29.815Z,100.00
2022-11-28T20:13:58.872Z,100.00
2022-11-28T20:16:27.330Z,100.00
2022-11-28T20:18:55.298Z,100.00
2022-11-28T20:21:23.240Z,100.00
2022-11-28T20:23:52.564Z,100.00
2022-11-28T20:26:24.304Z,100.00
2022-11-28T20:28:52.241Z,100.00
2022-11-28T20:31:22.139Z,100.00
2022-11-28T20:33:50.477Z,100.00
2022-11-28T20:36:20.562Z,100.00
2022-11-28T20:38:49.470Z,100.00
2022-11-28T20:41:19.627Z,100.00
2022-11-28T20:43:49.395Z,100.00
2022-11-28T20:46:19.497Z,100.00
2022-11-28T20:48:47.988Z,100.00
2022-11-28T20:51:18.365Z,100.00
2022-11-28T20:53:46.719Z,100.00
2022-11-28T20:56:17.740Z,100.00
2022-11-28T20:58:46.480Z,100.00
2022-11-28T21:01:17.490Z,100.00
2022-11-28T21:03:45.688Z,100.00
2022-11-28T21:06:13.983Z,100.00
2022-11-28T21:08:42.202Z,100.00
2022-11-28T21:11:30.644Z,100.00
2022-11-28T21:14:02.257Z,100.00
2022-11-28T21:16:33.089Z,100.00
2022-11-28T21:19:04.767Z,100.00
2022-11-28T21:21:34.495Z,100.00
2022-11-28T21:24:05.298Z,100.00
2022-11-28T21:26:40.925Z,99.10
2022-11-28T21:29:13.138Z,99.21
2022-11-28T21:31:45.162Z,99.89
2022-11-28T21:34:14.817Z,99.13
2022-11-28T21:36:43.033Z,98.31
2022-11-28T21:39:14.126Z,96.93
2022-11-28T21:41:42.164Z,98.11
2022-11-28T21:44:10.159Z,98.47
2022-11-28T21:46:38.098Z,98.13
2022-11-28T21:49:07.453Z,99.07
2022-11-28T21:51:35.387Z,98.79
2022-11-28T21:54:03.321Z,99.42
2022-11-28T21:56:31.267Z,99.56
2022-11-28T21:58:59.200Z,100.00
2022-11-28T22:01:27.213Z,100.00
2022-11-28T22:04:00.616Z,99.61
2022-11-28T22:06:31.411Z,100.00
2022-11-28T22:09:02.248Z,100.00
2022-11-28T22:11:35.151Z,100.00
2022-11-28T22:14:03.076Z,100.00
2022-11-28T22:16:31.544Z,100.00
2022-11-28T22:19:01.139Z,100.00
2022-11-28T22:21:51.217Z,100.00
2022-11-28T22:24:18.676Z,99.64
2022-11-28T22:26:46.632Z,99.50
2022-11-28T22:29:15.028Z,99.58
2022-11-28T22:31:43.122Z,97.96
2022-11-28T22:34:11.210Z,98.86
2022-11-28T22:36:39.364Z,98.62
2022-11-28T22:39:07.661Z,98.96
2022-11-28T22:41:36.994Z,97.26
2022-11-28T22:44:05.327Z,98.40
2022-11-28T22:46:34.145Z,98.69
2022-11-28T22:49:02.493Z,98.91
2022-11-28T22:51:31.030Z,99.66
2022-11-28T22:54:01.198Z,99.34
2022-11-28T22:56:30.477Z,100.00
2022-11-28T22:59:00.426Z,99.75
2022-11-28T23:01:30.226Z,100.00
2022-11-28T23:03:58.433Z,100.00
2022-11-28T23:06:28.918Z,99.00
2022-11-28T23:08:57.895Z,99.64
2022-11-28T23:11:28.884Z,100.00
2022-11-28T23:13:58.035Z,100.00
2022-11-28T23:16:30.189Z,100.00
2022-11-28T23:19:04.498Z,100.00
2022-11-28T23:21:32.897Z,100.00
2022-11-28T23:24:00.918Z,100.00
2022-11-28T23:26:31.060Z,100.00
2022-11-28T23:29:00.585Z,100.00
2022-11-28T23:31:31.631Z,100.00
2022-11-28T23:34:00.917Z,100.00
2022-11-28T23:36:30.472Z,100.00
2022-11-28T23:39:00.577Z,100.00
2022-11-28T23:41:29.967Z,100.00
2022-11-28T23:43:58.792Z,100.00
2022-11-28T23:46:29.889Z,100.00
2022-11-28T23:48:57.983Z,100.00
2022-11-28T23:51:27.320Z,100.00
2022-11-28T23:53:55.650Z,100.00
2022-11-28T23:56:25.171Z,100.00
2022-11-28T23:58:54.024Z,100.00
